createdAt,value
2023-04-17T00:01:04.393Z,100715.41
2023-04-17T00:03:34.122Z,100722.36
2023-04-17T00:04:43.997Z,100720.20
2023-04-17T00:07:09.729Z,100720.06
2023-04-17T00:09:34.009Z,100726.42
2023-04-17T00:11:58.434Z,100723.05
2023-04-17T00:13:07.513Z,100730.77
2023-04-17T00:14:17.281Z,100731.00
2023-04-17T00:17:01.534Z,100723.48
2023-04-17T00:19:27.536Z,100723.12
2023-04-17T00:20:36.560Z,100728.75
2023-04-17T00:23:01.491Z,100725.70
2023-04-17T00:25:29.013Z,100721.74
2023-04-17T00:26:38.302Z,100724.17
2023-04-17T00:29:04.548Z,100717.41
2023-04-17T00:30:14.370Z,100729.73
2023-04-17T00:31:24.085Z,100733.59
2023-04-17T00:32:35.761Z,100732.47
2023-04-17T00:33:46.848Z,100733.77
2023-04-17T00:34:56.527Z,100731.27
2023-04-17T00:37:24.178Z,100725.72
2023-04-17T00:38:33.074Z,100736.95
2023-04-17T00:41:18.917Z,100734.39
2023-04-17T00:43:45.232Z,100724.70
2023-04-17T00:46:09.976Z,100722.69
2023-04-17T00:47:22.847Z,100732.32
2023-04-17T00:48:35.486Z,100733.88
2023-04-17T00:51:03.787Z,100722.69
2023-04-17T00:53:32.308Z,100732.91
2023-04-17T00:56:00.547Z,100730.75
2023-04-17T00:57:10.417Z,100720.95
2023-04-17T00:59:39.705Z,100724.15
2023-04-17T01:02:04.875Z,100727.54
2023-04-17T01:03:14.319Z,100728.94
2023-04-17T01:05:39.953Z,100729.61
2023-04-17T01:06:53.445Z,100734.38
2023-04-17T01:09:18.526Z,100726.23
2023-04-17T01:11:43.336Z,100734.19
2023-04-17T01:14:21.713Z,100727.16
2023-04-17T01:15:31.791Z,100734.98
2023-04-17T01:18:00.364Z,100730.05
2023-04-17T01:19:10.481Z,100726.59
2023-04-17T01:20:21.453Z,100728.93
2023-04-17T01:21:31.781Z,100731.18
2023-04-17T01:22:41.023Z,100738.94
2023-04-17T01:25:09.374Z,100723.55
2023-04-17T01:27:38.967Z,100725.70
2023-04-17T01:30:12.181Z,100731.27
2023-04-17T01:31:28.546Z,100735.84
2023-04-17T01:32:37.940Z,100737.08
2023-04-17T01:35:02.941Z,100729.98
2023-04-17T01:37:30.192Z,100726.50
2023-04-17T01:39:57.386Z,100730.56
2023-04-17T01:42:26.262Z,100728.16
2023-04-17T01:44:55.113Z,100726.59
2023-04-17T01:46:04.878Z,100729.27
2023-04-17T01:47:14.592Z,100733.17
2023-04-17T01:48:23.254Z,100726.59
2023-04-17T01:50:48.256Z,100720.95
2023-04-17T01:53:13.036Z,100725.52
2023-04-17T01:55:42.247Z,100729.42
2023-04-17T01:56:52.320Z,100738.00
2023-04-17T01:58:02.059Z,100738.09
2023-04-17T01:59:12.010Z,100727.72
2023-04-17T02:00:22.875Z,100733.34
2023-04-17T02:02:47.510Z,100728.15
2023-04-17T02:03:57.661Z,100737.10
2023-04-17T02:06:23.529Z,100728.82
2023-04-17T02:08:48.707Z,100733.66
2023-04-17T02:09:58.503Z,100732.27
2023-04-17T02:12:23.875Z,100736.98
2023-04-17T02:14:49.783Z,100732.30
2023-04-17T02:15:59.790Z,100729.09
2023-04-17T02:18:28.805Z,100734.70
2023-04-17T02:19:38.109Z,100741.73
2023-04-17T02:22:01.835Z,100735.31
2023-04-17T02:23:12.830Z,100742.61
2023-04-17T02:24:21.427Z,100743.13
2023-04-17T02:25:31.525Z,100747.12
2023-04-17T02:26:41.476Z,100747.45
2023-04-17T02:29:06.458Z,100751.34
2023-04-17T02:31:31.643Z,100741.64
2023-04-17T02:33:56.755Z,100746.69
2023-04-17T02:36:23.903Z,100744.87
2023-04-17T02:38:50.310Z,100748.84
2023-04-17T02:41:15.552Z,100744.59
2023-04-17T02:43:39.904Z,100745.72
2023-04-17T02:46:06.190Z,100746.95
2023-04-17T02:48:29.807Z,100749.78
2023-04-17T02:49:41.605Z,100755.39
2023-04-17T02:52:05.523Z,100755.56
2023-04-17T02:53:14.534Z,100753.91
2023-04-17T02:55:39.760Z,100754.23
2023-04-17T02:58:07.365Z,100756.48
2023-04-17T03:00:32.951Z,100757.59
2023-04-17T03:02:58.406Z,100756.98
2023-04-17T03:05:25.244Z,100748.68
2023-04-17T03:08:12.914Z,100759.84
2023-04-17T03:09:28.797Z,100763.94
2023-04-17T03:10:39.797Z,100765.94
2023-04-17T03:13:05.806Z,100761.78
2023-04-17T03:14:15.709Z,100770.42
2023-04-17T03:15:24.670Z,100764.64
2023-04-17T03:16:34.741Z,100771.52
2023-04-17T03:19:03.320Z,100766.09
2023-04-17T03:21:29.212Z,100766.42
2023-04-17T03:23:53.674Z,100764.00
2023-04-17T03:26:18.978Z,100770.41
2023-04-17T03:27:30.407Z,100772.70
2023-04-17T03:28:40.314Z,100780.83
2023-04-17T03:31:04.560Z,100782.25
2023-04-17T03:32:14.769Z,100784.55
2023-04-17T03:33:26.280Z,100788.09
2023-04-17T03:35:52.592Z,100788.48
2023-04-17T03:37:03.408Z,100793.80
2023-04-17T03:38:13.297Z,100792.31
2023-04-17T03:39:31.853Z,100797.52
2023-04-17T03:40:44.270Z,100802.96
2023-04-17T03:43:09.037Z,100795.37
2023-04-17T03:45:34.251Z,100799.84
2023-04-17T03:46:45.305Z,100803.13
2023-04-17T03:47:55.899Z,100809.36
2023-04-17T03:49:05.887Z,100798.63
2023-04-17T03:51:31.154Z,100805.30
2023-04-17T03:53:59.016Z,100808.95
2023-04-17T03:56:24.266Z,100807.52
2023-04-17T03:58:51.278Z,100809.27
2023-04-17T04:01:15.930Z,100817.95
2023-04-17T04:02:27.395Z,100818.34
2023-04-17T04:04:54.133Z,100819.31
2023-04-17T04:07:22.729Z,100814.63
2023-04-17T04:09:48.150Z,100811.95
2023-04-17T04:12:14.749Z,100811.02
2023-04-17T04:14:43.266Z,100811.41
2023-04-17T04:15:53.169Z,100822.65
2023-04-17T04:17:03.853Z,100810.95
2023-04-17T04:18:12.952Z,100814.61
2023-04-17T04:19:22.173Z,100819.97
2023-04-17T04:20:32.652Z,100819.88
2023-04-17T04:21:44.632Z,100821.62
2023-04-17T04:22:57.846Z,100821.62
2023-04-17T04:24:08.133Z,100823.42
2023-04-17T04:26:35.820Z,100827.59
2023-04-17T04:27:50.401Z,100823.42
2023-04-17T04:29:00.984Z,100823.33
2023-04-17T04:31:51.915Z,100824.59
2023-04-17T04:34:18.708Z,100823.70
2023-04-17T04:36:46.319Z,100818.52
2023-04-17T04:39:16.245Z,100814.89
2023-04-17T04:41:44.975Z,100818.52
2023-04-17T04:44:11.821Z,100834.52
2023-04-17T04:46:37.118Z,100820.52
2023-04-17T04:47:47.381Z,100830.14
2023-04-17T04:50:11.004Z,100835.03
2023-04-17T04:52:35.233Z,100835.26
2023-04-17T04:55:01.458Z,100827.21
2023-04-17T04:57:40.514Z,100831.00
2023-04-17T04:58:50.768Z,100837.25
2023-04-17T05:00:01.392Z,100846.78
2023-04-17T05:01:36.269Z,100833.84
2023-04-17T05:04:00.776Z,100827.94
2023-04-17T05:05:12.531Z,100837.58
2023-04-17T05:06:21.454Z,100837.50
2023-04-17T05:07:36.004Z,100845.55
2023-04-17T05:10:00.237Z,100828.95
2023-04-17T05:11:10.521Z,100836.70
2023-04-17T05:13:38.923Z,100837.33
2023-04-17T05:14:49.746Z,100835.12
2023-04-17T05:17:15.258Z,100841.75
2023-04-17T05:19:41.318Z,100835.36
2023-04-17T05:20:52.025Z,100843.86
2023-04-17T05:23:21.786Z,100843.88
2023-04-17T05:25:47.500Z,100845.55
2023-04-17T05:26:57.913Z,100844.18
2023-04-17T05:29:29.226Z,100855.62
2023-04-17T05:31:56.078Z,100851.92
2023-04-17T05:33:07.561Z,100856.80
2023-04-17T05:35:41.822Z,100855.08
2023-04-17T05:38:07.501Z,100864.78
2023-04-17T05:40:31.385Z,100860.36
2023-04-17T05:42:55.855Z,100865.89
2023-04-17T05:44:06.553Z,100864.44
2023-04-17T05:46:33.255Z,100867.52
2023-04-17T05:47:43.015Z,100867.84
2023-04-17T05:50:09.375Z,100875.09
2023-04-17T05:52:33.320Z,100869.44
2023-04-17T05:53:45.311Z,100875.51
2023-04-17T05:56:11.082Z,100873.52
2023-04-17T05:57:20.023Z,100870.52
2023-04-17T05:59:45.003Z,100863.13
2023-04-17T06:02:11.392Z,100858.86
2023-04-17T06:03:21.662Z,100868.22
2023-04-17T06:04:33.080Z,100858.30
2023-04-17T06:06:57.190Z,100865.72
2023-04-17T06:09:23.947Z,100867.14
2023-04-17T06:10:34.678Z,100876.36
2023-04-17T06:11:43.420Z,100873.52
2023-04-17T06:12:52.774Z,100869.66
2023-04-17T06:14:02.922Z,100875.73
2023-04-17T06:16:28.992Z,100864.54
2023-04-17T06:18:55.438Z,100870.04
2023-04-17T06:20:11.036Z,100873.30
2023-04-17T06:22:39.887Z,100880.21
2023-04-17T06:23:50.367Z,100893.09
2023-04-17T06:26:14.465Z,100887.41
2023-04-17T06:28:39.297Z,100891.16
2023-04-17T06:31:03.598Z,100877.14
2023-04-17T06:33:27.769Z,100884.94
2023-04-17T06:34:46.034Z,100889.92
2023-04-17T06:37:03.988Z,100891.02
2023-04-17T06:39:28.612Z,100880.88
2023-04-17T06:41:53.784Z,100883.03
2023-04-17T06:44:20.117Z,100890.77
2023-04-17T06:46:45.504Z,100881.75
2023-04-17T06:49:09.457Z,100881.34
2023-04-17T06:51:34.219Z,100888.00
2023-04-17T06:52:44.496Z,100892.34
2023-04-17T06:55:11.082Z,100896.30
2023-04-17T06:56:20.734Z,100901.50
2023-04-17T06:57:29.846Z,100894.43
2023-04-17T06:59:55.879Z,100902.23
2023-04-17T07:02:22.031Z,100892.69
2023-04-17T07:03:31.782Z,100899.54
2023-04-17T07:05:58.162Z,100895.45
2023-04-17T07:08:24.184Z,100897.25
2023-04-17T07:09:33.370Z,100899.54
2023-04-17T07:11:58.173Z,100899.62
2023-04-17T07:14:22.504Z,100907.13
2023-04-17T07:15:31.170Z,100903.11
2023-04-17T07:17:56.661Z,100901.84
2023-04-17T07:19:06.737Z,100910.52
2023-04-17T07:20:17.192Z,100907.83
2023-04-17T07:22:42.526Z,100902.00
2023-04-17T07:25:09.048Z,100907.03
2023-04-17T07:26:18.862Z,100902.94
2023-04-17T07:27:27.987Z,100910.27
2023-04-17T07:28:38.225Z,100904.13
2023-04-17T07:31:07.466Z,100906.02
2023-04-17T07:33:31.918Z,100889.75
2023-04-17T07:34:42.042Z,100902.09
2023-04-17T07:35:51.187Z,100900.17
2023-04-17T07:38:35.671Z,100904.99
2023-04-17T07:41:07.291Z,100900.27
2023-04-17T07:43:33.112Z,100905.93
2023-04-17T07:45:58.652Z,100911.46
2023-04-17T07:48:23.310Z,100904.61
2023-04-17T07:52:05.644Z,100908.78
2023-04-17T07:54:33.230Z,100907.42
2023-04-17T07:57:18.220Z,100906.48
2023-04-17T07:59:42.182Z,100909.23
2023-04-17T08:02:07.718Z,100901.33
2023-04-17T08:04:32.717Z,100899.14
2023-04-17T08:07:02.997Z,100899.99
2023-04-17T08:09:30.224Z,100893.73
2023-04-17T08:11:57.870Z,100895.49
2023-04-17T08:14:23.144Z,100903.64
2023-04-17T08:16:49.733Z,100881.20
2023-04-17T08:19:13.988Z,100886.31
2023-04-17T08:20:24.888Z,100895.84
2023-04-17T08:24:00.683Z,100881.47
2023-04-17T08:26:26.830Z,100881.37
2023-04-17T08:28:54.134Z,100892.39
2023-04-17T08:31:23.939Z,100896.20
2023-04-17T08:34:10.459Z,100887.81
2023-04-17T08:35:12.167Z,100891.95
2023-04-17T08:37:37.797Z,100873.75
2023-04-17T08:40:11.215Z,100882.61
2023-04-17T08:42:41.618Z,100881.14
2023-04-17T08:45:12.336Z,100881.72
2023-04-17T08:47:42.096Z,100866.83
2023-04-17T08:50:16.234Z,100876.29
2023-04-17T08:52:45.827Z,100888.66
2023-04-17T08:55:19.474Z,100889.97
2023-04-17T08:58:05.507Z,100886.06
2023-04-17T09:00:34.004Z,100885.17
2023-04-17T09:03:21.696Z,100887.19
2023-04-17T09:06:22.791Z,100891.95
2023-04-17T09:08:59.914Z,100888.31
2023-04-17T09:10:09.001Z,100888.49
2023-04-17T09:11:18.840Z,100881.05
2023-04-17T09:13:43.278Z,100882.25
2023-04-17T09:16:22.571Z,100886.25
2023-04-17T09:18:50.095Z,100877.58
2023-04-17T09:21:28.488Z,100878.70
2023-04-17T09:23:59.646Z,100875.07
2023-04-17T09:26:33.933Z,100872.87
2023-04-17T09:29:09.512Z,100868.10
2023-04-17T09:31:36.973Z,100868.34
2023-04-17T09:34:12.409Z,100860.74
2023-04-17T09:36:44.333Z,100850.10
2023-04-17T09:39:21.205Z,100859.15
2023-04-17T09:42:04.219Z,100854.66
2023-04-17T09:43:13.259Z,100865.58
2023-04-17T09:45:44.942Z,100845.69
2023-04-17T09:48:12.555Z,100857.70
2023-04-17T09:51:03.494Z,100855.72
2023-04-17T09:52:14.472Z,100860.70
2023-04-17T09:54:41.165Z,100849.75
2023-04-17T09:57:08.869Z,100847.45
2023-04-17T09:58:18.078Z,100843.75
2023-04-17T10:00:43.661Z,100859.16
2023-04-17T10:03:17.795Z,100849.94
2023-04-17T10:05:46.055Z,100848.52
2023-04-17T10:08:13.751Z,100841.58
2023-04-17T10:09:29.321Z,100845.14
2023-04-17T10:11:57.094Z,100840.72
2023-04-17T10:14:36.931Z,100844.75
2023-04-17T10:18:42.444Z,100837.93
2023-04-17T10:21:21.549Z,100838.90
2023-04-17T10:23:48.514Z,100832.24
2023-04-17T10:26:35.257Z,100838.69
2023-04-17T10:29:01.061Z,100819.16
2023-04-17T10:32:07.724Z,100821.75
2023-04-17T10:34:39.277Z,100819.52
2023-04-17T10:35:53.185Z,100826.82
2023-04-17T10:38:36.453Z,100816.67
2023-04-17T10:41:19.971Z,100819.27
2023-04-17T10:42:30.157Z,100820.27
2023-04-17T10:43:42.256Z,100831.47
2023-04-17T10:44:56.276Z,100830.20
2023-04-17T10:47:33.069Z,100810.12
2023-04-17T10:50:10.416Z,100811.08
2023-04-17T10:51:28.704Z,100818.41
2023-04-17T10:52:42.499Z,100821.75
2023-04-17T10:53:54.846Z,100822.11
2023-04-17T10:56:41.987Z,100814.48
2023-04-17T10:59:20.782Z,100830.81
2023-04-17T11:02:00.895Z,100832.86
2023-04-17T11:03:14.938Z,100835.30
2023-04-17T11:05:46.438Z,100812.57
2023-04-17T11:08:12.077Z,100810.18
2023-04-17T11:10:38.393Z,100824.86
2023-04-17T11:11:47.355Z,100821.47
2023-04-17T11:12:57.284Z,100809.33
2023-04-17T11:15:27.442Z,100807.11
2023-04-17T11:17:58.797Z,100809.80
2023-04-17T11:20:33.458Z,100787.48
2023-04-17T11:23:04.579Z,100787.27
2023-04-17T11:25:30.970Z,100798.27
2023-04-17T11:26:45.951Z,100805.77
2023-04-17T11:27:56.745Z,100800.83
2023-04-17T11:29:08.117Z,100793.18
2023-04-17T11:32:11.312Z,100790.30
2023-04-17T11:34:36.516Z,100786.09
2023-04-17T11:37:01.960Z,100780.16
2023-04-17T11:38:21.622Z,100785.75
2023-04-17T11:40:56.120Z,100795.91
2023-04-17T11:42:05.562Z,100784.89
2023-04-17T11:43:15.644Z,100779.82
2023-04-17T11:45:43.495Z,100772.78
2023-04-17T11:48:13.774Z,100778.52
2023-04-17T11:50:51.469Z,100764.88
2023-04-17T11:53:19.886Z,100763.19
2023-04-17T11:54:33.383Z,100774.52
2023-04-17T11:55:43.470Z,100768.16
2023-04-17T11:58:18.639Z,100756.36
2023-04-17T12:01:07.212Z,100773.75
2023-04-17T12:03:36.121Z,100757.98
2023-04-17T12:04:45.914Z,100754.85
2023-04-17T12:06:02.304Z,100757.66
2023-04-17T12:09:39.466Z,100756.86
2023-04-17T12:10:48.515Z,100761.72
2023-04-17T12:13:15.148Z,100744.27
2023-04-17T12:15:39.021Z,100759.80
2023-04-17T12:16:49.984Z,100753.27
2023-04-17T12:18:00.470Z,100751.87
2023-04-17T12:19:10.996Z,100751.20
2023-04-17T12:20:20.932Z,100761.78
2023-04-17T12:22:45.805Z,100737.02
2023-04-17T12:25:11.001Z,100741.64
2023-04-17T12:27:37.118Z,100747.66
2023-04-17T12:28:46.361Z,100746.63
2023-04-17T12:31:11.126Z,100748.66
2023-04-17T12:33:35.284Z,100744.66
2023-04-17T12:36:02.343Z,100740.59
2023-04-17T12:38:26.857Z,100737.32
2023-04-17T12:40:51.034Z,100758.86
2023-04-17T12:42:00.587Z,100747.86
2023-04-17T12:44:27.710Z,100739.44
2023-04-17T12:46:51.716Z,100744.46
2023-04-17T12:49:16.246Z,100746.16
2023-04-17T12:51:46.363Z,100729.09
2023-04-17T12:56:34.271Z,100745.24
2023-04-17T12:57:43.483Z,100744.78
2023-04-17T13:00:09.589Z,100740.02
2023-04-17T13:01:18.426Z,100730.42
2023-04-17T13:03:42.669Z,100739.05
2023-04-17T13:06:07.491Z,100738.17
2023-04-17T13:08:35.141Z,100737.88
2023-04-17T13:11:04.032Z,100735.14
2023-04-17T13:13:30.384Z,100735.75
2023-04-17T13:14:40.508Z,100738.94
2023-04-17T13:17:05.728Z,100730.80
2023-04-17T13:19:34.646Z,100738.29
2023-04-17T13:21:58.774Z,100725.42
2023-04-17T13:24:22.547Z,100724.83
2023-04-17T13:26:47.797Z,100719.09
2023-04-17T13:29:11.778Z,100719.66
2023-04-17T13:30:21.571Z,100718.92
2023-04-17T13:32:46.640Z,100742.08
2023-04-17T13:35:14.638Z,100713.61
2023-04-17T13:37:40.069Z,100740.48
2023-04-17T13:40:09.501Z,100723.05
2023-04-17T13:42:33.610Z,100724.87
2023-04-17T13:44:57.595Z,100719.74
2023-04-17T13:47:23.975Z,100718.61
2023-04-17T13:49:49.437Z,100730.34
2023-04-17T13:52:14.427Z,100734.38
2023-04-17T13:54:40.536Z,100728.05
2023-04-17T13:55:50.812Z,100727.20
2023-04-17T13:58:15.599Z,100720.27
2023-04-17T14:00:40.108Z,100731.04
2023-04-17T14:03:05.279Z,100715.91
2023-04-17T14:05:29.587Z,100727.95
2023-04-17T14:07:53.958Z,100714.94
2023-04-17T14:10:18.376Z,100722.84
2023-04-17T14:11:28.786Z,100720.86
2023-04-17T14:12:39.412Z,100719.48
2023-04-17T14:15:06.882Z,100713.06
2023-04-17T14:17:35.719Z,100727.48
2023-04-17T14:20:06.289Z,100717.19
2023-04-17T14:22:31.291Z,100712.07
2023-04-17T14:26:05.214Z,100710.98
2023-04-17T14:28:30.226Z,100700.17
2023-04-17T14:30:53.933Z,100708.04
2023-04-17T14:33:18.707Z,100717.88
2023-04-17T14:35:42.811Z,100699.24
2023-04-17T14:38:26.716Z,100703.84
2023-04-17T14:40:52.795Z,100704.97
2023-04-17T14:43:17.096Z,100698.67
2023-04-17T14:45:41.632Z,100694.48
2023-04-17T14:48:07.087Z,100693.55
2023-04-17T14:50:33.034Z,100684.07
2023-04-17T14:52:58.220Z,100691.89
2023-04-17T14:55:23.317Z,100695.73
2023-04-17T14:57:50.446Z,100686.70
2023-04-17T15:00:16.481Z,100688.27
2023-04-17T15:01:25.312Z,100686.25
2023-04-17T15:03:53.084Z,100680.08
2023-04-17T15:06:18.778Z,100682.13
2023-04-17T15:08:42.515Z,100670.36
2023-04-17T15:11:07.005Z,100675.32
2023-04-17T15:12:16.035Z,100672.53
2023-04-17T15:14:41.749Z,100668.70
2023-04-17T15:17:06.560Z,100662.38
2023-04-17T15:18:18.423Z,100669.88
2023-04-17T15:19:27.750Z,100669.62
2023-04-17T15:20:37.089Z,100666.69
2023-04-17T15:23:00.760Z,100668.06
2023-04-17T15:25:25.981Z,100657.64
2023-04-17T15:26:38.654Z,100671.13
2023-04-17T15:29:22.501Z,100663.41
2023-04-17T15:31:46.390Z,100658.58
2023-04-17T15:34:12.516Z,100676.41
2023-04-17T15:35:21.147Z,100664.80
2023-04-17T15:36:31.359Z,100673.38
2023-04-17T15:37:41.375Z,100665.16
2023-04-17T15:38:51.222Z,100677.05
2023-04-17T15:41:15.398Z,100666.28
2023-04-17T15:42:24.062Z,100677.76
2023-04-17T15:43:32.838Z,100679.86
2023-04-17T15:44:42.153Z,100679.61
2023-04-17T15:45:58.885Z,100679.78
2023-04-17T15:47:09.744Z,100681.55
2023-04-17T15:49:33.600Z,100674.09
2023-04-17T15:52:01.558Z,100678.81
2023-04-17T15:54:27.241Z,100670.00
2023-04-17T15:56:52.758Z,100671.20
2023-04-17T15:59:17.594Z,100679.78
2023-04-17T16:01:43.851Z,100681.34
2023-04-17T16:02:52.799Z,100681.16
2023-04-17T16:05:18.258Z,100676.84
2023-04-17T16:07:42.917Z,100678.23
2023-04-17T16:08:52.783Z,100681.83
2023-04-17T16:11:17.469Z,100675.29
2023-04-17T16:12:27.761Z,100677.81
2023-04-17T16:14:52.965Z,100672.77
2023-04-17T16:16:02.836Z,100683.39
2023-04-17T16:18:27.043Z,100671.56
2023-04-17T16:20:51.510Z,100681.28
2023-04-17T16:23:16.240Z,100680.52
2023-04-17T16:25:47.101Z,100684.34
2023-04-17T16:28:13.967Z,100684.78
2023-04-17T16:30:43.122Z,100684.42
2023-04-17T16:33:12.681Z,100672.53
2023-04-17T16:35:37.897Z,100689.73
2023-04-17T16:38:02.384Z,100682.48
2023-04-17T16:40:26.082Z,100684.34
2023-04-17T16:42:50.627Z,100691.67
2023-04-17T16:45:14.105Z,100691.06
2023-04-17T16:46:35.513Z,100691.55
2023-04-17T16:49:15.149Z,100689.27
2023-04-17T16:51:40.223Z,100689.15
2023-04-17T16:54:07.063Z,100677.46
2023-04-17T16:55:16.452Z,100693.48
2023-04-17T16:57:43.628Z,100684.71
2023-04-17T17:00:10.489Z,100684.59
2023-04-17T17:02:34.210Z,100698.87
2023-04-17T17:05:00.740Z,100683.63
2023-04-17T17:07:25.620Z,100688.61
2023-04-17T17:08:34.251Z,100684.45
2023-04-17T17:10:57.704Z,100682.19
2023-04-17T17:13:23.195Z,100687.73
2023-04-17T17:15:47.778Z,100691.30
2023-04-17T17:18:11.564Z,100689.23
2023-04-17T17:19:21.269Z,100689.27
2023-04-17T17:21:45.337Z,100699.69
2023-04-17T17:22:53.933Z,100706.84
2023-04-17T17:24:03.716Z,100694.87
2023-04-17T17:26:27.765Z,100694.97
2023-04-17T17:28:52.900Z,100693.69
2023-04-17T17:31:17.042Z,100690.55
2023-04-17T17:32:26.365Z,100694.00
2023-04-17T17:34:52.597Z,100689.06
2023-04-17T17:37:18.328Z,100688.27
2023-04-17T17:39:42.980Z,100684.37
2023-04-17T17:42:09.521Z,100679.09
2023-04-17T17:44:35.007Z,100691.30
2023-04-17T17:46:59.436Z,100688.95
2023-04-17T17:48:09.643Z,100691.85
2023-04-17T17:49:18.867Z,100692.08
2023-04-17T17:51:44.451Z,100686.34
2023-04-17T17:54:08.794Z,100687.09
2023-04-17T17:56:33.873Z,100680.73
2023-04-17T17:57:49.490Z,100691.30
2023-04-17T18:00:12.964Z,100689.48
2023-04-17T18:02:38.564Z,100683.23
2023-04-17T18:05:02.555Z,100687.63
2023-04-17T18:07:26.632Z,100680.63
2023-04-17T18:09:51.902Z,100688.60
2023-04-17T18:11:01.572Z,100689.80
2023-04-17T18:13:27.352Z,100681.07
2023-04-17T18:15:51.903Z,100686.23
2023-04-17T18:17:01.647Z,100692.19
2023-04-17T18:19:25.870Z,100681.30
2023-04-17T18:21:54.725Z,100680.84
2023-04-17T18:24:20.017Z,100687.09
2023-04-17T18:26:43.482Z,100683.88
2023-04-17T18:27:52.938Z,100689.16
2023-04-17T18:29:10.009Z,100680.30
2023-04-17T18:30:18.868Z,100677.49
2023-04-17T18:32:42.677Z,100681.59
2023-04-17T18:35:08.010Z,100686.39
2023-04-17T18:36:17.962Z,100695.09
2023-04-17T18:37:27.703Z,100677.55
2023-04-17T18:38:36.250Z,100681.77
2023-04-17T18:41:00.975Z,100680.27
2023-04-17T18:42:10.093Z,100680.99
2023-04-17T18:44:33.726Z,100676.38
2023-04-17T18:45:42.607Z,100679.58
2023-04-17T18:48:08.388Z,100669.81
2023-04-17T18:50:33.628Z,100669.25
2023-04-17T18:53:05.325Z,100664.20
2023-04-17T18:55:35.925Z,100664.48
2023-04-17T18:58:02.013Z,100660.73
2023-04-17T18:59:13.381Z,100669.98
2023-04-17T19:01:37.957Z,100656.84
2023-04-17T19:04:04.041Z,100659.87
2023-04-17T19:06:30.731Z,100660.05
2023-04-17T19:07:40.356Z,100661.22
2023-04-17T19:10:07.184Z,100666.59
2023-04-17T19:12:31.913Z,100654.02
2023-04-17T19:14:57.860Z,100648.59
2023-04-17T19:17:22.929Z,100646.88
2023-04-17T19:18:31.846Z,100653.55
2023-04-17T19:19:41.754Z,100654.41
2023-04-17T19:22:06.579Z,100639.67
2023-04-17T19:23:15.406Z,100652.80
2023-04-17T19:25:43.941Z,100637.75
2023-04-17T19:28:13.486Z,100648.06
2023-04-17T19:29:23.049Z,100670.00
2023-04-17T19:30:32.138Z,100649.52
2023-04-17T19:31:41.505Z,100652.22
2023-04-17T19:34:08.362Z,100645.97
2023-04-17T19:36:32.961Z,100649.27
2023-04-17T19:38:59.155Z,100635.88
2023-04-17T19:41:24.244Z,100634.98
2023-04-17T19:42:33.780Z,100642.08
2023-04-17T19:45:01.335Z,100643.49
2023-04-17T19:46:11.128Z,100640.59
2023-04-17T19:47:20.212Z,100644.23
2023-04-17T19:49:45.479Z,100624.66
2023-04-17T19:50:55.202Z,100643.81
2023-04-17T19:53:40.635Z,100637.26
2023-04-17T19:56:08.657Z,100642.79
2023-04-17T19:58:34.004Z,100642.79
2023-04-17T20:00:59.082Z,100638.67
2023-04-17T20:02:08.652Z,100646.03
2023-04-17T20:03:19.720Z,100651.31
2023-04-17T20:05:44.230Z,100634.36
2023-04-17T20:08:08.864Z,100641.05
2023-04-17T20:10:35.135Z,100632.34
2023-04-17T20:12:58.957Z,100625.45
2023-04-17T20:14:09.259Z,100631.05
2023-04-17T20:15:20.037Z,100634.05
2023-04-17T20:17:46.010Z,100634.10
2023-04-17T20:18:56.381Z,100630.30
2023-04-17T20:21:22.307Z,100624.86
2023-04-17T20:22:31.392Z,100626.73
2023-04-17T20:24:56.634Z,100623.75
2023-04-17T20:27:20.181Z,100618.44
2023-04-17T20:29:44.990Z,100622.14
2023-04-17T20:32:15.288Z,100614.90
2023-04-17T20:34:39.343Z,100613.97
2023-04-17T20:35:48.970Z,100610.91
2023-04-17T20:36:58.587Z,100608.89
2023-04-17T20:39:22.813Z,100610.11
2023-04-17T20:41:48.132Z,100603.72
2023-04-17T20:44:15.793Z,100605.05
2023-04-17T20:46:42.498Z,100604.10
2023-04-17T20:49:06.789Z,100610.42
2023-04-17T20:51:52.524Z,100609.95
2023-04-17T20:54:16.238Z,100600.87
2023-04-17T20:56:40.897Z,100600.87
2023-04-17T20:59:04.838Z,100597.36
2023-04-17T21:42:11.308Z,100576.73
2023-04-17T21:44:36.723Z,100571.09
2023-04-17T21:45:47.392Z,100580.21
2023-04-17T21:46:56.847Z,100578.41
2023-04-17T21:48:05.674Z,100577.62
2023-04-17T21:49:14.669Z,100578.95
2023-04-17T21:51:39.645Z,100579.19
2023-04-17T21:52:49.199Z,100584.45
2023-04-17T21:55:14.068Z,100579.95
2023-04-17T21:57:39.679Z,100576.97
2023-04-17T22:00:07.370Z,100582.74
2023-04-17T22:02:31.656Z,100572.09
2023-04-17T22:03:41.591Z,100582.43
2023-04-17T22:06:06.389Z,100574.56
2023-04-17T22:08:31.896Z,100574.56
2023-04-17T22:09:40.487Z,100574.86
2023-04-17T22:13:30.470Z,100570.64
2023-04-17T22:15:58.512Z,100569.78
2023-04-17T22:18:28.584Z,100582.43
2023-04-17T22:20:54.374Z,100575.02
2023-04-17T22:23:17.921Z,100558.90
2023-04-17T22:24:26.503Z,100573.86
2023-04-17T22:26:51.766Z,100564.38
2023-04-17T22:29:15.190Z,100564.97
2023-04-17T22:30:24.999Z,100570.19
2023-04-17T22:32:48.486Z,100566.67
2023-04-17T22:33:58.406Z,100563.78
2023-04-17T22:36:23.675Z,100562.14
2023-04-17T22:38:47.852Z,100558.10
2023-04-17T22:41:11.760Z,100553.33
2023-04-17T22:42:20.923Z,100555.72
2023-04-17T22:44:45.761Z,100549.59
2023-04-17T22:47:10.957Z,100550.25
2023-04-17T22:49:40.417Z,100550.25
2023-04-17T22:53:16.712Z,100558.14
2023-04-17T22:54:26.486Z,100548.09
2023-04-17T22:56:51.529Z,100535.48
2023-04-17T22:58:03.018Z,100545.16
2023-04-17T22:59:13.598Z,100539.69
2023-04-17T23:01:39.438Z,100527.95
2023-04-17T23:04:06.021Z,100536.70
2023-04-17T23:05:16.337Z,100536.39
2023-04-17T23:07:41.454Z,100527.71
2023-04-17T23:10:07.072Z,100525.38
2023-04-17T23:12:32.382Z,100527.91
2023-04-17T23:13:42.634Z,100530.34
2023-04-17T23:16:09.708Z,100522.70
2023-04-17T23:18:37.034Z,100535.08
2023-04-17T23:19:46.142Z,100532.56
2023-04-17T23:20:56.299Z,100530.64
2023-04-17T23:23:23.859Z,100522.15
2023-04-17T23:24:34.412Z,100527.20
2023-04-17T23:25:43.602Z,100523.78
2023-04-17T23:28:11.833Z,100523.23
2023-04-17T23:29:21.747Z,100527.52
2023-04-17T23:31:46.824Z,100526.28
2023-04-17T23:34:11.698Z,100524.03
2023-04-17T23:36:58.969Z,100528.00
2023-04-17T23:39:23.220Z,100541.97
2023-04-17T23:41:51.421Z,100529.19
2023-04-17T23:44:17.659Z,100525.87
2023-04-17T23:45:27.277Z,100531.59
2023-04-17T23:47:53.035Z,100532.59
2023-04-17T23:49:03.715Z,100540.55
2023-04-17T23:51:28.142Z,100522.59
2023-04-17T23:53:51.777Z,100521.64
2023-04-17T23:55:01.624Z,100528.45
2023-04-17T23:57:25.851Z,100520.20
2023-04-17T23:59:51.468Z,100518.87
